createdAt,value
2018-06-08T00:00:07.142Z,73.16
2018-06-08T00:01:07.085Z,72.68
2018-06-08T00:02:07.112Z,73.52
2018-06-08T00:03:07.081Z,73.61
2018-06-08T00:04:06.709Z,73.80
2018-06-08T00:05:07.091Z,74.10
2018-06-08T00:06:07.072Z,73.80
2018-06-08T00:07:07.114Z,73.90
2018-06-08T00:08:07.071Z,73.90
2018-06-08T00:09:07.086Z,74.29
2018-06-08T00:10:07.086Z,75.06
2018-06-08T00:11:07.096Z,75.06
2018-06-08T00:12:07.067Z,76.22
2018-06-08T00:13:07.147Z,75.93
2018-06-08T00:14:07.102Z,75.35
2018-06-08T00:15:07.124Z,75.06
2018-06-08T00:16:07.105Z,75.84
2018-06-08T00:17:07.108Z,75.45
2018-06-08T00:18:07.106Z,75.74
2018-06-08T00:19:07.122Z,76.18
2018-06-08T00:20:07.207Z,76.37
2018-06-08T00:21:07.125Z,76.42
2018-06-08T00:22:07.224Z,76.47
2018-06-08T00:23:08.977Z,76.47
2018-06-08T00:24:07.203Z,75.60
2018-06-08T00:25:06.812Z,75.79
2018-06-08T00:26:07.210Z,75.41
2018-06-08T00:27:07.238Z,76.18
2018-06-08T00:28:07.196Z,75.79
2018-06-08T00:29:07.187Z,76.28
2018-06-08T00:30:07.172Z,76.18
2018-06-08T00:31:07.270Z,77.01
2018-06-08T00:32:07.290Z,77.59
2018-06-08T00:33:07.139Z,76.86
2018-06-08T00:34:07.141Z,76.57
2018-06-08T00:35:07.138Z,76.09
2018-06-08T00:36:07.144Z,75.79
2018-06-08T00:37:07.800Z,75.99
2018-06-08T00:38:07.130Z,75.79
2018-06-08T00:39:07.166Z,75.89
2018-06-08T00:40:07.095Z,75.60
2018-06-08T00:41:06.820Z,76.95
2018-06-08T00:42:07.148Z,76.67
2018-06-08T00:43:07.167Z,77.11
2018-06-08T00:44:07.131Z,77.88
2018-06-08T00:45:07.205Z,77.78
2018-06-08T00:46:07.161Z,78.17
2018-06-08T00:47:07.196Z,77.73
2018-06-08T00:48:07.290Z,77.98
2018-06-08T00:49:07.259Z,78.27
2018-06-08T00:50:07.245Z,78.42
2018-06-08T00:51:09.071Z,78.71
2018-06-08T00:52:09.086Z,79.00
2018-06-08T00:53:07.322Z,78.46
2018-06-08T00:54:07.241Z,78.17
2018-06-08T00:55:07.398Z,78.17
2018-06-08T00:56:07.298Z,78.46
2018-06-08T00:57:07.257Z,79.10
2018-06-08T00:59:07.300Z,79.97
2018-06-08T01:00:07.193Z,79.97
2018-06-08T01:01:07.166Z,81.02
2018-06-08T01:02:07.164Z,80.99
2018-06-08T01:03:07.159Z,81.12
2018-06-08T01:04:07.228Z,81.02
2018-06-08T01:05:07.237Z,80.45
2018-06-08T01:06:07.230Z,81.12
2018-06-08T01:07:07.219Z,80.74
2018-06-08T01:08:07.221Z,80.74
2018-06-08T01:09:07.185Z,80.93
2018-06-08T01:10:07.209Z,81.12
2018-06-08T01:11:07.187Z,81.51
2018-06-08T01:12:07.224Z,80.64
2018-06-08T01:13:07.237Z,81.22
2018-06-08T01:14:07.274Z,81.12
2018-06-08T01:15:07.404Z,81.70
2018-06-08T01:16:07.259Z,81.22
2018-06-08T01:17:06.914Z,81.02
2018-06-08T01:18:07.416Z,80.45
2018-06-08T01:19:07.453Z,81.12
2018-06-08T01:20:07.461Z,81.41
2018-06-08T01:21:07.820Z,81.41
2018-06-08T01:22:07.383Z,81.99
2018-06-08T01:23:07.440Z,81.99
2018-06-08T01:24:07.426Z,82.05
2018-06-08T01:25:09.210Z,82.57
2018-06-08T01:26:07.429Z,82.72
2018-06-08T01:27:07.402Z,82.38
2018-06-08T01:28:07.317Z,82.67
2018-06-08T01:29:09.103Z,82.76
2018-06-08T01:30:07.338Z,82.09
2018-06-08T01:31:07.344Z,82.48
2018-06-08T01:32:07.320Z,82.82
2018-06-08T01:33:07.324Z,82.86
2018-06-08T01:34:07.304Z,82.67
2018-06-08T01:35:07.266Z,82.53
2018-06-08T01:36:07.409Z,82.72
2018-06-08T01:37:07.362Z,83.78
2018-06-08T01:38:07.369Z,83.69
2018-06-08T01:39:07.323Z,83.88
2018-06-08T01:40:07.678Z,84.27
2018-06-08T01:41:07.424Z,84.36
2018-06-08T01:42:07.413Z,84.65
2018-06-08T01:43:07.454Z,85.23
2018-06-08T01:44:07.417Z,85.33
2018-06-08T01:45:07.390Z,85.33
2018-06-08T01:46:07.381Z,85.77
2018-06-08T01:47:07.457Z,86.25
2018-06-08T01:48:07.482Z,85.81
2018-06-08T01:49:07.370Z,85.81
2018-06-08T01:50:07.530Z,86.00
2018-06-08T01:51:07.685Z,85.77
2018-06-08T01:52:07.696Z,86.00
2018-06-08T01:53:07.722Z,85.61
2018-06-08T01:54:09.472Z,85.71
2018-06-08T01:55:07.615Z,85.81
2018-06-08T01:56:07.583Z,86.19
2018-06-08T01:57:07.601Z,86.00
2018-06-08T01:58:07.625Z,85.81
2018-06-08T01:59:07.652Z,85.81
2018-06-08T02:00:07.708Z,85.91
2018-06-08T02:01:07.634Z,85.81
2018-06-08T02:02:07.655Z,85.81
2018-06-08T02:03:07.651Z,86.39
2018-06-08T02:04:09.472Z,86.10
2018-06-08T02:05:07.625Z,87.02
2018-06-08T02:06:07.652Z,87.02
2018-06-08T02:07:07.649Z,87.12
2018-06-08T02:08:07.680Z,86.87
2018-06-08T02:09:07.666Z,87.16
2018-06-08T02:10:07.677Z,88.08
2018-06-08T02:11:07.670Z,87.70
2018-06-08T02:12:07.629Z,87.70
2018-06-08T02:13:07.678Z,86.96
2018-06-08T02:14:07.692Z,86.58
2018-06-08T02:15:07.693Z,86.77
2018-06-08T02:17:07.691Z,87.60
2018-06-08T02:18:07.676Z,87.70
2018-06-08T02:19:07.668Z,87.88
2018-06-08T02:20:07.630Z,87.30
2018-06-08T02:21:07.660Z,87.45
2018-06-08T02:22:09.483Z,87.16
2018-06-08T02:23:07.547Z,86.68
2018-06-08T02:24:07.592Z,87.26
2018-06-08T02:25:07.677Z,87.45
2018-06-08T02:26:07.626Z,87.30
2018-06-08T02:27:07.660Z,87.70
2018-06-08T02:28:07.642Z,87.79
2018-06-08T02:29:07.631Z,87.60
2018-06-08T02:30:07.654Z,87.70
2018-06-08T02:31:07.620Z,87.70
2018-06-08T02:32:07.629Z,87.79
2018-06-08T02:33:07.640Z,87.50
2018-06-08T02:34:07.665Z,88.75
2018-06-08T02:35:07.700Z,88.65
2018-06-08T02:36:07.674Z,88.56
2018-06-08T02:37:07.675Z,87.88
2018-06-08T02:38:07.673Z,88.27
2018-06-08T02:39:07.692Z,87.70
2018-06-08T02:40:07.629Z,88.56
2018-06-08T02:41:07.685Z,88.65
2018-06-08T02:42:07.634Z,88.37
2018-06-08T02:43:07.660Z,87.40
2018-06-08T02:44:07.688Z,87.50
2018-06-08T02:45:07.717Z,87.60
2018-06-08T02:46:07.170Z,87.35
2018-06-08T02:47:07.655Z,87.83
2018-06-08T02:48:09.883Z,88.27
2018-06-08T02:49:07.665Z,88.65
2018-06-08T02:50:07.636Z,88.37
2018-06-08T02:51:07.635Z,88.75
2018-06-08T02:52:09.911Z,88.37
2018-06-08T02:53:07.654Z,88.95
2018-06-08T02:54:07.649Z,88.37
2018-06-08T02:55:07.651Z,88.56
2018-06-08T02:56:07.616Z,88.46
2018-06-08T02:57:13.651Z,88.85
2018-06-08T02:58:13.848Z,89.14
2018-06-08T02:59:07.663Z,89.33
2018-06-08T03:00:07.117Z,89.72
2018-06-08T03:01:07.692Z,90.10
2018-06-08T03:02:07.674Z,89.33
2018-06-08T03:03:07.659Z,89.53
2018-06-08T03:04:07.663Z,89.53
2018-06-08T03:05:07.708Z,88.75
2018-06-08T03:06:07.692Z,89.33
2018-06-08T03:07:09.528Z,88.85
2018-06-08T03:08:07.709Z,89.23
2018-06-08T03:09:07.702Z,89.72
2018-06-08T03:10:07.709Z,88.56
2018-06-08T03:11:07.696Z,89.14
2018-06-08T03:12:07.730Z,89.23
2018-06-08T03:13:07.715Z,89.14
2018-06-08T03:14:07.631Z,89.33
2018-06-08T03:15:07.688Z,88.85
2018-06-08T03:16:07.679Z,88.56
2018-06-08T03:17:07.674Z,88.95
2018-06-08T03:18:07.695Z,89.72
2018-06-08T03:19:07.766Z,89.53
2018-06-08T03:20:07.697Z,89.04
2018-06-08T03:21:07.685Z,88.85
2018-06-08T03:22:07.637Z,88.85
2018-06-08T03:23:07.201Z,88.85
2018-06-08T03:24:07.691Z,89.33
2018-06-08T03:25:07.699Z,89.43
2018-06-08T03:26:07.717Z,89.04
2018-06-08T03:27:07.693Z,89.23
2018-06-08T03:28:07.726Z,88.75
2018-06-08T03:29:07.691Z,88.75
2018-06-08T03:30:07.709Z,89.33
2018-06-08T03:31:07.677Z,89.33
2018-06-08T03:32:09.860Z,89.23
2018-06-08T03:33:07.710Z,88.95
2018-06-08T03:34:07.201Z,89.53
2018-06-08T03:35:07.735Z,89.33
2018-06-08T03:36:07.690Z,89.62
2018-06-08T03:37:07.720Z,89.62
2018-06-08T03:38:07.775Z,89.91
2018-06-08T03:39:07.712Z,89.33
2018-06-08T03:40:07.706Z,90.30
2018-06-08T03:41:07.243Z,89.43
2018-06-08T03:42:07.688Z,89.43
2018-06-08T03:43:07.683Z,89.33
2018-06-08T03:44:07.691Z,89.53
2018-06-08T03:45:07.685Z,88.95
2018-06-08T03:46:07.687Z,89.72
2018-06-08T03:47:07.681Z,89.62
2018-06-08T03:48:07.387Z,90.10
2018-06-08T03:49:07.658Z,89.62
2018-06-08T03:50:08.224Z,90.15
2018-06-08T03:51:07.702Z,89.62
2018-06-08T03:52:07.701Z,89.81
2018-06-08T03:53:09.720Z,89.62
2018-06-08T03:54:07.711Z,90.30
2018-06-08T03:55:07.924Z,90.20
2018-06-08T03:56:07.673Z,89.62
2018-06-08T03:57:07.902Z,89.04
2018-06-08T03:58:07.700Z,89.04
2018-06-08T03:59:07.270Z,89.14
2018-06-08T04:00:07.907Z,88.37
2018-06-08T04:01:07.906Z,88.79
2018-06-08T04:02:08.018Z,89.23
2018-06-08T04:03:07.907Z,89.43
2018-06-08T04:04:07.891Z,89.43
2018-06-08T04:05:07.895Z,89.72
2018-06-08T04:06:07.890Z,89.62
2018-06-08T04:07:07.912Z,90.97
2018-06-08T04:08:07.986Z,90.20
2018-06-08T04:09:07.388Z,90.58
2018-06-08T04:10:07.751Z,90.88
2018-06-08T04:11:07.686Z,90.39
2018-06-08T04:12:07.703Z,90.10
2018-06-08T04:13:07.932Z,90.48
2018-06-08T04:14:07.717Z,90.10
2018-06-08T04:15:07.699Z,89.53
2018-06-08T04:16:07.730Z,90.00
2018-06-08T04:17:07.782Z,90.20
2018-06-08T04:18:07.768Z,91.36
2018-06-08T04:19:07.675Z,90.48
2018-06-08T04:20:07.722Z,90.88
2018-06-08T04:21:07.755Z,90.88
2018-06-08T04:22:08.228Z,90.58
2018-06-08T04:23:07.993Z,90.48
2018-06-08T04:24:07.332Z,91.64
2018-06-08T04:25:07.758Z,90.78
2018-06-08T04:26:07.754Z,90.78
2018-06-08T04:27:07.362Z,90.48
2018-06-08T04:28:07.773Z,91.26
2018-06-08T04:29:07.769Z,91.64
2018-06-08T04:30:07.739Z,90.88
2018-06-08T04:31:07.759Z,90.68
2018-06-08T04:32:07.813Z,90.30
2018-06-08T04:33:07.782Z,90.78
2018-06-08T04:34:07.866Z,91.16
2018-06-08T04:35:07.837Z,90.68
2018-06-08T04:36:07.795Z,90.48
2018-06-08T04:37:07.732Z,91.06
2018-06-08T04:38:07.700Z,91.55
2018-06-08T04:39:07.640Z,91.45
2018-06-08T04:40:07.796Z,90.78
2018-06-08T04:41:07.715Z,90.58
2018-06-08T04:42:08.257Z,90.63
2018-06-08T04:43:08.243Z,90.53
2018-06-08T04:44:07.901Z,89.95
2018-06-08T04:45:07.922Z,90.34
2018-06-08T04:46:07.905Z,89.91
2018-06-08T04:47:07.923Z,91.02
2018-06-08T04:48:08.245Z,89.37
2018-06-08T04:49:07.383Z,89.33
2018-06-08T04:50:07.745Z,89.47
2018-06-08T04:51:07.724Z,89.67
2018-06-08T04:52:07.746Z,90.00
2018-06-08T04:53:07.809Z,90.44
2018-06-08T04:54:07.735Z,90.82
2018-06-08T04:55:07.760Z,90.24
2018-06-08T04:56:07.766Z,91.02
2018-06-08T04:57:07.734Z,90.92
2018-06-08T04:58:07.747Z,91.11
2018-06-08T04:59:07.745Z,91.30
2018-06-08T05:00:09.617Z,91.98
2018-06-08T05:01:07.506Z,92.08
2018-06-08T05:02:07.761Z,92.22
2018-06-08T05:03:07.860Z,91.98
2018-06-08T05:04:08.432Z,91.93
2018-06-08T05:05:07.416Z,91.40
2018-06-08T05:06:07.778Z,91.40
2018-06-08T05:07:07.912Z,90.97
2018-06-08T05:08:08.020Z,89.76
2018-06-08T05:09:08.248Z,89.47
2018-06-08T05:10:07.931Z,88.89
2018-06-08T05:11:07.788Z,88.70
2018-06-08T05:12:08.268Z,88.70
2018-06-08T05:13:07.805Z,90.15
2018-06-08T05:14:07.792Z,89.57
2018-06-08T05:15:08.033Z,88.70
2018-06-08T05:16:08.255Z,88.79
2018-06-08T05:17:07.966Z,88.79
2018-06-08T05:18:08.253Z,89.09
2018-06-08T05:19:07.966Z,89.47
2018-06-08T05:20:07.886Z,89.57
2018-06-08T05:21:08.168Z,89.67
2018-06-08T05:22:08.271Z,89.28
2018-06-08T05:23:09.770Z,89.86
2018-06-08T05:24:07.920Z,89.76
2018-06-08T05:25:07.973Z,90.24
2018-06-08T05:26:07.970Z,90.34
2018-06-08T05:27:07.942Z,90.24
2018-06-08T05:28:08.271Z,90.82
2018-06-08T05:29:07.975Z,90.44
2018-06-08T05:30:08.299Z,89.47
2018-06-08T05:31:08.408Z,89.57
2018-06-08T05:32:07.974Z,89.09
2018-06-08T05:33:07.949Z,89.09
2018-06-08T05:34:14.472Z,89.18
2018-06-08T05:35:14.284Z,88.70
2018-06-08T05:36:07.547Z,88.51
2018-06-08T05:37:08.061Z,89.13
2018-06-08T05:38:08.468Z,88.75
2018-06-08T05:39:07.763Z,87.78
2018-06-08T05:40:07.895Z,87.93
2018-06-08T05:41:08.368Z,88.31
2018-06-08T05:42:08.000Z,88.89
2018-06-08T05:43:07.929Z,88.60
2018-06-08T05:44:07.938Z,88.17
2018-06-08T05:45:07.923Z,87.97
2018-06-08T05:46:08.283Z,88.65
2018-06-08T05:47:09.994Z,87.97
2018-06-08T05:48:07.971Z,87.30
2018-06-08T05:49:08.232Z,87.83
2018-06-08T05:50:08.285Z,87.93
2018-06-08T05:51:07.959Z,87.30
2018-06-08T05:52:07.929Z,87.78
2018-06-08T05:53:07.874Z,87.88
2018-06-08T05:54:07.938Z,87.44
2018-06-08T05:55:08.452Z,87.63
2018-06-08T05:56:08.212Z,88.79
2018-06-08T05:57:07.979Z,89.47
2018-06-08T05:58:08.042Z,89.42
2018-06-08T05:59:08.521Z,90.09
2018-06-08T06:00:08.261Z,88.59
2018-06-08T06:01:07.977Z,89.37
2018-06-08T06:02:07.974Z,89.95
2018-06-08T06:03:08.446Z,90.53
2018-06-08T06:04:07.935Z,90.33
2018-06-08T06:05:07.982Z,90.23
2018-06-08T06:06:10.033Z,90.23
2018-06-08T06:07:07.941Z,90.43
2018-06-08T06:08:07.969Z,90.53
2018-06-08T06:09:08.352Z,88.98
2018-06-08T06:10:07.570Z,88.89
2018-06-08T06:11:08.479Z,89.65
2018-06-08T06:12:10.107Z,89.37
2018-06-08T06:13:08.237Z,89.17
2018-06-08T06:14:07.958Z,88.98
2018-06-08T06:15:08.582Z,89.65
2018-06-08T06:16:07.783Z,89.79
2018-06-08T06:17:08.172Z,89.12
2018-06-08T06:18:08.464Z,88.25
2018-06-08T06:19:08.357Z,87.82
2018-06-08T06:20:07.904Z,87.82
2018-06-08T06:21:08.048Z,87.63
2018-06-08T06:22:08.337Z,87.34
2018-06-08T06:23:08.096Z,86.47
2018-06-08T06:24:08.442Z,86.18
2018-06-08T06:25:09.986Z,87.34
2018-06-08T06:26:07.994Z,87.63
2018-06-08T06:27:08.237Z,87.05
2018-06-08T06:28:08.260Z,87.34
2018-06-08T06:29:08.521Z,86.96
2018-06-08T06:30:08.266Z,87.53
2018-06-08T06:31:08.292Z,87.58
2018-06-08T06:32:08.790Z,86.38
2018-06-08T06:33:07.951Z,86.86
2018-06-08T06:34:08.487Z,87.15
2018-06-08T06:35:08.447Z,86.18
2018-06-08T06:36:08.528Z,86.28
2018-06-08T06:37:08.046Z,86.03
2018-06-08T06:38:08.468Z,85.26
2018-06-08T06:39:08.014Z,86.18
2018-06-08T06:40:08.982Z,86.47
2018-06-08T06:41:08.454Z,86.08
2018-06-08T06:42:08.465Z,86.47
2018-06-08T06:43:10.099Z,86.96
2018-06-08T06:44:08.801Z,87.34
2018-06-08T06:45:08.906Z,87.34
2018-06-08T06:46:08.861Z,87.38
2018-06-08T06:47:08.450Z,87.58
2018-06-08T06:48:08.818Z,88.40
2018-06-08T06:49:08.478Z,88.40
2018-06-08T06:50:08.528Z,87.38
2018-06-08T06:51:08.005Z,87.48
2018-06-08T06:52:08.032Z,87.34
2018-06-08T06:53:08.849Z,87.53
2018-06-08T06:54:08.813Z,87.53
2018-06-08T06:55:08.560Z,87.34
2018-06-08T06:56:08.625Z,87.24
2018-06-08T06:57:08.312Z,86.96
2018-06-08T06:58:08.358Z,86.86
2018-06-08T06:59:08.779Z,87.24
2018-06-08T07:00:08.977Z,87.87
2018-06-08T07:01:08.810Z,88.15
2018-06-08T07:02:08.818Z,87.58
2018-06-08T07:03:08.572Z,87.87
2018-06-08T07:04:08.564Z,87.38
2018-06-08T07:05:08.504Z,87.00
2018-06-08T07:06:08.510Z,86.22
2018-06-08T07:07:08.549Z,86.03
2018-06-08T07:08:08.468Z,86.13
2018-06-08T07:09:08.489Z,86.42
2018-06-08T07:10:08.557Z,86.61
2018-06-08T07:11:08.542Z,86.71
2018-06-08T07:12:10.541Z,87.29
2018-06-08T07:13:08.800Z,87.48
2018-06-08T07:14:08.523Z,86.71
2018-06-08T07:15:09.011Z,87.09
2018-06-08T07:16:08.805Z,87.48
2018-06-08T07:17:08.063Z,87.48
2018-06-08T07:18:08.603Z,87.87
2018-06-08T07:19:08.046Z,87.38
2018-06-08T07:20:08.007Z,87.29
2018-06-08T07:21:08.532Z,88.35
2018-06-08T07:22:08.801Z,87.87
2018-06-08T07:23:07.801Z,88.06
2018-06-08T07:24:08.536Z,87.96
2018-06-08T07:25:08.895Z,87.48
2018-06-08T07:26:08.517Z,87.38
2018-06-08T07:27:08.470Z,88.15
2018-06-08T07:28:08.569Z,87.67
2018-06-08T07:29:08.557Z,87.48
2018-06-08T07:30:08.072Z,87.19
2018-06-08T07:31:08.306Z,87.38
2018-06-08T07:32:08.265Z,87.38
2018-06-08T07:33:08.565Z,87.19
2018-06-08T07:34:08.333Z,87.38
2018-06-08T07:35:08.449Z,87.29
2018-06-08T07:36:07.972Z,87.38
2018-06-08T07:37:08.493Z,88.35
2018-06-08T07:38:08.956Z,87.38
2018-06-08T07:39:13.554Z,87.62
2018-06-08T07:40:08.328Z,87.62
2018-06-08T07:41:08.981Z,88.20
2018-06-08T07:42:08.833Z,88.20
2018-06-08T07:43:08.472Z,88.20
2018-06-08T07:44:07.821Z,88.20
2018-06-08T07:45:10.110Z,88.10
2018-06-08T07:46:08.473Z,87.13
2018-06-08T07:47:08.472Z,87.33
2018-06-08T07:48:08.474Z,87.62
2018-06-08T07:49:08.481Z,88.39
2018-06-08T07:50:08.929Z,87.62
2018-06-08T07:51:08.522Z,87.81
2018-06-08T07:52:07.965Z,87.62
2018-06-08T07:53:08.879Z,87.62
2018-06-08T07:54:08.825Z,86.85
2018-06-08T07:55:08.418Z,86.75
2018-06-08T07:56:08.506Z,87.43
2018-06-08T07:57:08.463Z,87.04
2018-06-08T07:58:08.826Z,87.04
2018-06-08T07:59:08.999Z,87.52
2018-06-08T08:00:08.233Z,86.94
2018-06-08T08:01:08.540Z,86.85
2018-06-08T08:02:08.860Z,87.43
2018-06-08T08:03:08.859Z,87.62
2018-06-08T08:04:07.896Z,86.94
2018-06-08T08:05:08.593Z,87.62
2018-06-08T08:06:08.401Z,87.52
2018-06-08T08:07:08.574Z,87.04
2018-06-08T08:08:07.871Z,86.27
2018-06-08T08:09:08.843Z,85.49
2018-06-08T08:10:08.508Z,85.49
2018-06-08T08:11:07.989Z,85.30
2018-06-08T08:12:09.000Z,85.59
2018-06-08T08:13:08.542Z,87.00
2018-06-08T08:14:08.991Z,86.46
2018-06-08T08:15:08.371Z,86.65
2018-06-08T08:16:08.901Z,86.85
2018-06-08T08:17:08.866Z,86.36
2018-06-08T08:18:09.018Z,86.56
2018-06-08T08:19:08.491Z,86.27
2018-06-08T08:20:08.587Z,85.59
2018-06-08T08:21:08.391Z,85.49
2018-06-08T08:22:08.819Z,87.43
2018-06-08T08:23:08.458Z,87.71
2018-06-08T08:24:08.556Z,85.49
2018-06-08T08:25:08.704Z,84.82
2018-06-08T08:26:09.057Z,84.24
2018-06-08T08:27:08.130Z,84.33
2018-06-08T08:28:08.364Z,84.14
2018-06-08T08:29:08.992Z,83.85
2018-06-08T08:30:08.529Z,84.43
2018-06-08T08:31:08.975Z,84.33
2018-06-08T08:32:08.566Z,84.14
2018-06-08T08:33:08.753Z,84.53
2018-06-08T08:34:08.596Z,84.14
2018-06-08T08:35:08.842Z,85.01
2018-06-08T08:36:07.983Z,85.49
2018-06-08T08:37:08.553Z,86.46
2018-06-08T08:38:08.832Z,86.46
2018-06-08T08:39:08.110Z,86.56
2018-06-08T08:40:09.501Z,87.62
2018-06-08T08:41:10.738Z,87.62
2018-06-08T08:42:08.085Z,87.33
2018-06-08T08:43:10.858Z,86.17
2018-06-08T08:44:08.861Z,86.27
2018-06-08T08:45:08.546Z,86.27
2018-06-08T08:46:09.055Z,86.17
2018-06-08T08:47:08.065Z,85.59
2018-06-08T08:48:08.501Z,85.40
2018-06-08T08:49:08.457Z,85.98
2018-06-08T08:50:08.921Z,86.17
2018-06-08T08:51:08.851Z,85.78
2018-06-08T08:52:08.582Z,86.56
2018-06-08T08:53:08.162Z,87.13
2018-06-08T08:54:09.166Z,86.56
2018-06-08T08:55:08.554Z,87.33
2018-06-08T08:56:08.710Z,87.13
2018-06-08T08:57:08.594Z,87.62
2018-06-08T08:58:08.510Z,87.43
2018-06-08T08:59:10.169Z,87.62
2018-06-08T09:00:08.755Z,86.36
2018-06-08T09:01:08.482Z,85.93
2018-06-08T09:02:09.111Z,86.36
2018-06-08T09:03:08.590Z,87.23
2018-06-08T09:04:08.808Z,86.79
2018-06-08T09:05:08.579Z,86.79
2018-06-08T09:06:08.169Z,87.57
2018-06-08T09:07:09.055Z,87.47
2018-06-08T09:08:08.568Z,87.43
2018-06-08T09:09:08.573Z,88.01
2018-06-08T09:10:10.516Z,88.29
2018-06-08T09:11:14.609Z,87.91
2018-06-08T09:12:14.895Z,89.17
2018-06-08T09:13:10.858Z,88.20
2018-06-08T09:14:08.946Z,88.59
2018-06-08T09:15:08.756Z,89.07
2018-06-08T09:16:09.093Z,88.87
2018-06-08T09:17:08.447Z,89.17
2018-06-08T09:18:08.886Z,88.59
2018-06-08T09:19:08.883Z,88.59
2018-06-08T09:20:08.467Z,89.36
2018-06-08T09:21:09.085Z,88.59
2018-06-08T09:22:08.523Z,89.84
2018-06-08T09:23:08.582Z,89.75
2018-06-08T09:24:08.524Z,88.68
2018-06-08T09:25:08.875Z,89.07
2018-06-08T09:26:09.102Z,88.97
2018-06-08T09:27:09.074Z,88.78
2018-06-08T09:28:09.022Z,90.33
2018-06-08T09:29:09.100Z,88.87
2018-06-08T09:30:09.073Z,89.75
2018-06-08T09:31:08.563Z,89.84
2018-06-08T09:32:08.594Z,89.84
2018-06-08T09:33:08.913Z,90.42
2018-06-08T09:34:09.219Z,90.33
2018-06-08T09:35:09.030Z,89.84
2018-06-08T09:36:09.063Z,89.11
2018-06-08T09:37:09.097Z,89.01
2018-06-08T09:38:08.589Z,88.63
2018-06-08T09:39:08.789Z,89.17
2018-06-08T09:40:08.574Z,89.17
2018-06-08T09:41:09.030Z,88.78
2018-06-08T09:42:08.832Z,88.10
2018-06-08T09:43:09.080Z,88.34
2018-06-08T09:44:09.375Z,88.82
2018-06-08T09:45:08.830Z,88.97
2018-06-08T09:46:08.908Z,90.23
2018-06-08T09:47:09.387Z,90.71
2018-06-08T09:48:08.639Z,91.09
2018-06-08T09:49:08.890Z,90.81
2018-06-08T09:50:09.371Z,91.25
2018-06-08T09:51:08.586Z,92.25
2018-06-08T09:52:09.413Z,91.29
2018-06-08T09:53:08.855Z,90.71
2018-06-08T09:54:08.899Z,91.15
2018-06-08T09:55:09.561Z,91.09
2018-06-08T09:56:09.005Z,90.91
2018-06-08T09:57:08.833Z,91.19
2018-06-08T09:58:09.035Z,91.00
2018-06-08T09:59:09.419Z,90.42
2018-06-08T10:00:09.362Z,91.09
2018-06-08T10:01:09.112Z,90.61
2018-06-08T10:02:09.152Z,90.91
2018-06-08T10:03:09.042Z,91.09
2018-06-08T10:04:09.461Z,91.77
2018-06-08T10:05:09.120Z,91.97
2018-06-08T10:06:08.638Z,92.07
2018-06-08T10:07:09.083Z,92.16
2018-06-08T10:08:09.046Z,91.97
2018-06-08T10:09:09.116Z,92.31
2018-06-08T10:10:09.039Z,92.74
2018-06-08T10:11:09.441Z,92.35
2018-06-08T10:12:08.404Z,93.51
2018-06-08T10:13:09.381Z,93.18
2018-06-08T10:14:09.139Z,93.76
2018-06-08T10:15:09.291Z,93.76
2018-06-08T10:16:08.541Z,93.08
2018-06-08T10:17:08.792Z,93.95
2018-06-08T10:18:09.114Z,93.18
2018-06-08T10:20:09.131Z,92.79
2018-06-08T10:21:09.563Z,93.76
2018-06-08T10:22:08.589Z,93.85
2018-06-08T10:23:09.482Z,93.18
2018-06-08T10:24:09.089Z,93.18
2018-06-08T10:25:09.119Z,92.98
2018-06-08T10:26:08.460Z,93.56
2018-06-08T10:27:09.380Z,93.18
2018-06-08T10:28:08.608Z,93.13
2018-06-08T10:29:08.952Z,92.98
2018-06-08T10:30:09.394Z,94.04
2018-06-08T10:31:09.392Z,94.34
2018-06-08T10:32:09.592Z,94.53
2018-06-08T10:33:09.405Z,93.56
2018-06-08T10:34:08.895Z,93.76
2018-06-08T10:35:08.827Z,93.08
2018-06-08T10:36:09.143Z,92.41
2018-06-08T10:37:09.005Z,93.18
2018-06-08T10:38:09.140Z,92.69
2018-06-08T10:39:09.393Z,92.41
2018-06-08T10:40:09.177Z,92.41
2018-06-08T10:41:09.052Z,92.89
2018-06-08T10:42:09.574Z,93.42
2018-06-08T10:43:08.472Z,94.00
2018-06-08T10:44:09.419Z,92.79
2018-06-08T10:45:09.425Z,92.50
2018-06-08T10:46:08.801Z,92.69
2018-06-08T10:47:09.137Z,92.41
2018-06-08T10:48:09.393Z,92.41
2018-06-08T10:49:09.058Z,92.50
2018-06-08T10:50:11.060Z,93.56
2018-06-08T10:51:09.131Z,93.71
2018-06-08T10:52:09.764Z,94.00
2018-06-08T10:53:08.836Z,94.77
2018-06-08T10:54:09.035Z,95.64
2018-06-08T10:55:09.493Z,95.93
2018-06-08T10:56:08.973Z,96.70
2018-06-08T10:57:09.428Z,97.28
2018-06-08T10:58:08.565Z,97.19
2018-06-08T10:59:09.064Z,97.96
2018-06-08T11:00:09.168Z,98.34
2018-06-08T11:01:08.607Z,99.02
2018-06-08T11:02:09.409Z,99.45
2018-06-08T11:03:09.707Z,99.99
2018-06-08T11:04:09.515Z,99.99
2018-06-08T11:05:08.874Z,99.99
2018-06-08T11:06:09.067Z,99.99
2018-06-08T11:07:09.065Z,99.99
2018-06-08T11:08:09.566Z,99.99
2018-06-08T11:09:09.168Z,99.99
2018-06-08T11:10:09.005Z,99.99
2018-06-08T11:11:09.100Z,99.99
2018-06-08T11:12:08.960Z,99.99
2018-06-08T11:13:08.891Z,99.99
2018-06-08T11:14:09.143Z,99.99
2018-06-08T11:15:09.437Z,99.99
2018-06-08T11:16:09.851Z,99.99
2018-06-08T11:17:09.090Z,99.99
2018-06-08T11:18:09.403Z,99.99
2018-06-08T11:19:09.066Z,99.99
2018-06-08T11:20:09.573Z,99.99
2018-06-08T11:21:08.916Z,99.99
2018-06-08T11:22:09.503Z,99.99
2018-06-08T11:23:08.864Z,99.99
2018-06-08T11:24:08.900Z,99.99
2018-06-08T11:25:09.112Z,99.99
2018-06-08T11:26:10.816Z,99.99
2018-06-08T11:27:08.990Z,99.99
2018-06-08T11:28:09.419Z,99.99
2018-06-08T11:29:09.137Z,99.99
2018-06-08T11:30:09.458Z,99.99
2018-06-08T11:31:09.218Z,99.99
2018-06-08T11:32:09.368Z,99.99
2018-06-08T11:33:08.880Z,99.99
2018-06-08T11:34:12.652Z,99.99
2018-06-08T11:35:08.958Z,99.99
2018-06-08T11:36:09.731Z,99.99
2018-06-08T11:37:10.934Z,99.99
2018-06-08T11:38:10.097Z,99.99
2018-06-08T11:39:10.979Z,99.99
2018-06-08T11:40:09.479Z,99.99
2018-06-08T11:41:09.541Z,99.99
2018-06-08T11:42:09.356Z,99.99
2018-06-08T11:43:09.217Z,99.99
2018-06-08T11:44:09.661Z,99.99
2018-06-08T11:45:08.948Z,99.99
2018-06-08T11:46:28.546Z,99.99
2018-06-08T11:47:08.956Z,99.99
2018-06-08T11:48:07.524Z,99.99
2018-06-08T11:49:08.899Z,99.99
2018-06-08T11:50:08.552Z,99.99
2018-06-08T11:51:10.829Z,99.99
2018-06-08T11:52:09.119Z,99.99
2018-06-08T11:53:08.684Z,99.99
2018-06-08T11:54:08.598Z,99.99
2018-06-08T11:55:09.023Z,99.99
2018-06-08T11:56:08.662Z,99.99
2018-06-08T11:57:09.162Z,99.99
2018-06-08T11:58:09.108Z,99.99
2018-06-08T11:59:08.662Z,99.99
2018-06-08T12:00:09.275Z,99.99
2018-06-08T12:01:10.770Z,99.99
2018-06-08T12:02:08.969Z,99.99
2018-06-08T12:03:09.022Z,99.99
2018-06-08T12:04:08.652Z,99.99
2018-06-08T12:05:09.526Z,99.99
2018-06-08T12:07:40.699Z,99.99
2018-06-08T12:08:42.068Z,99.99
2018-06-08T12:10:37.594Z,99.99
2018-06-08T12:11:36.963Z,99.99
2018-06-08T12:13:30.573Z,99.99
2018-06-08T12:14:30.889Z,99.99
2018-06-08T12:16:24.722Z,99.99
2018-06-08T12:17:25.987Z,99.99
2018-06-08T12:19:18.609Z,99.99
2018-06-08T12:20:18.671Z,99.99
2018-06-08T12:22:13.393Z,99.99
2018-06-08T12:23:13.404Z,99.99
2018-06-08T12:24:13.596Z,99.99
2018-06-08T12:25:13.896Z,99.99
2018-06-08T12:26:13.880Z,99.99
2018-06-08T12:27:13.427Z,99.99
2018-06-08T12:28:14.042Z,99.99
2018-06-08T12:29:13.280Z,99.99
2018-06-08T12:30:13.101Z,99.99
2018-06-08T12:31:14.077Z,99.99
2018-06-08T12:32:13.403Z,99.99
2018-06-08T12:33:13.615Z,99.99
2018-06-08T12:34:13.380Z,99.99
2018-06-08T12:35:13.385Z,99.99
2018-06-08T12:36:13.622Z,99.99
2018-06-08T12:37:13.536Z,99.99
2018-06-08T12:38:13.933Z,99.99
2018-06-08T12:39:13.004Z,99.99
2018-06-08T12:40:14.144Z,99.99
2018-06-08T12:41:13.560Z,99.99
2018-06-08T12:42:13.668Z,99.99
2018-06-08T12:43:14.173Z,99.99
2018-06-08T12:44:13.110Z,99.99
2018-06-08T12:45:15.547Z,99.99
2018-06-08T12:46:13.471Z,99.99
2018-06-08T12:47:13.476Z,99.99
2018-06-08T12:48:14.217Z,99.99
2018-06-08T12:49:13.420Z,99.99
2018-06-08T12:50:13.894Z,99.99
2018-06-08T12:51:13.565Z,99.99
2018-06-08T12:52:13.578Z,99.99
2018-06-08T12:53:13.472Z,99.99
2018-06-08T12:54:13.564Z,99.99
2018-06-08T12:55:13.444Z,99.99
2018-06-08T12:56:13.836Z,99.99
2018-06-08T12:57:12.977Z,99.99
2018-06-08T12:58:13.907Z,99.99
2018-06-08T12:59:13.243Z,99.99
2018-06-08T13:00:14.573Z,99.99
2018-06-08T13:01:13.473Z,99.99